createdAt,value
2018-09-03T00:00:25.663Z,15.50
2018-09-03T00:02:54.318Z,15.40
2018-09-03T00:05:29.316Z,15.40
2018-09-03T00:07:57.929Z,15.50
2018-09-03T00:10:26.546Z,15.60
2018-09-03T00:12:55.185Z,15.50
2018-09-03T00:15:23.790Z,15.50
2018-09-03T00:17:52.449Z,15.40
2018-09-03T00:20:21.046Z,15.40
2018-09-03T00:22:49.709Z,15.40
2018-09-03T00:25:18.293Z,15.50
2018-09-03T00:27:46.884Z,15.40
2018-09-03T00:30:15.488Z,15.40
2018-09-03T00:32:49.380Z,15.40
2018-09-03T00:35:23.262Z,15.40
2018-09-03T00:37:57.280Z,15.40
2018-09-03T00:40:31.069Z,15.30
2018-09-03T00:43:04.937Z,15.20
2018-09-03T00:45:38.886Z,15.20
2018-09-03T00:48:07.523Z,15.30
2018-09-03T00:50:36.232Z,15.30
2018-09-03T00:53:04.899Z,15.30
2018-09-03T00:55:33.468Z,15.30
2018-09-03T00:58:02.110Z,15.30
2018-09-03T01:00:30.743Z,15.30
2018-09-03T01:02:59.347Z,15.30
2018-09-03T01:05:27.966Z,15.30
2018-09-03T01:07:56.657Z,15.30
2018-09-03T01:10:25.222Z,15.30
2018-09-03T01:12:53.872Z,15.20
2018-09-03T01:15:23.269Z,15.30
2018-09-03T01:17:51.864Z,15.30
2018-09-03T01:20:20.458Z,15.20
2018-09-03T01:22:49.072Z,15.10
2018-09-03T01:25:17.650Z,15.10
2018-09-03T01:27:46.234Z,15.00
2018-09-03T01:30:14.865Z,15.00
2018-09-03T01:32:43.457Z,15.20
2018-09-03T01:35:12.050Z,15.20
2018-09-03T01:37:40.625Z,15.20
2018-09-03T01:40:09.234Z,14.90
2018-09-03T01:42:37.842Z,14.90
2018-09-03T01:45:06.501Z,14.90
2018-09-03T01:47:35.312Z,14.90
2018-09-03T01:50:03.977Z,14.90
2018-09-03T01:52:33.397Z,14.90
2018-09-03T01:55:01.973Z,14.80
2018-09-03T01:57:30.587Z,14.80
2018-09-03T01:59:59.192Z,14.90
2018-09-03T02:02:27.813Z,14.90
2018-09-03T02:04:56.388Z,15.00
2018-09-03T02:07:25.002Z,15.00
2018-09-03T02:09:53.729Z,15.00
2018-09-03T02:12:22.352Z,15.10
2018-09-03T02:14:50.948Z,15.00
2018-09-03T02:17:19.608Z,14.90
2018-09-03T02:19:48.204Z,14.80
2018-09-03T02:22:23.529Z,14.80
2018-09-03T02:24:52.146Z,14.80
2018-09-03T02:27:20.827Z,14.90
2018-09-03T02:29:49.502Z,15.00
2018-09-03T02:32:18.161Z,14.90
2018-09-03T02:34:46.765Z,14.80
2018-09-03T02:37:15.413Z,14.80
2018-09-03T02:39:44.078Z,15.00
2018-09-03T02:42:12.655Z,15.10
2018-09-03T02:44:41.288Z,15.00
2018-09-03T02:47:09.889Z,14.90
2018-09-03T02:49:38.502Z,14.90
2018-09-03T02:52:07.139Z,14.80
2018-09-03T02:54:35.754Z,14.70
2018-09-03T02:57:04.448Z,14.60
2018-09-03T02:59:33.049Z,14.50
2018-09-03T03:02:01.609Z,14.40
2018-09-03T03:04:30.216Z,14.30
2018-09-03T03:06:58.817Z,14.30
2018-09-03T03:09:27.465Z,14.40
2018-09-03T03:11:56.151Z,14.50
2018-09-03T03:14:24.708Z,14.60
2018-09-03T03:16:53.350Z,14.70
2018-09-03T03:19:21.969Z,14.60
2018-09-03T03:21:50.608Z,14.50
2018-09-03T03:24:19.315Z,14.60
2018-09-03T03:26:47.933Z,14.70
2018-09-03T03:29:16.581Z,14.80
2018-09-03T03:31:45.201Z,14.90
2018-09-03T03:34:13.865Z,14.90
2018-09-03T03:36:42.514Z,14.90
2018-09-03T03:39:11.814Z,14.90
2018-09-03T03:41:46.942Z,14.90
2018-09-03T03:44:15.577Z,14.90
2018-09-03T03:46:44.209Z,14.90
2018-09-03T03:49:12.918Z,15.00
2018-09-03T03:51:41.534Z,15.10
2018-09-03T03:54:10.196Z,15.00
2018-09-03T04:16:19.969Z,14.60
2018-09-03T04:18:48.593Z,14.60
2018-09-03T04:21:17.262Z,14.60
2018-09-03T04:23:45.951Z,14.70
2018-09-03T04:26:14.528Z,14.80
2018-09-03T04:28:43.247Z,14.90
2018-09-03T04:31:12.002Z,14.90
2018-09-03T04:33:40.690Z,14.80
2018-09-03T04:36:09.352Z,14.80
2018-09-03T04:38:38.085Z,14.80
2018-09-03T04:41:06.646Z,14.80
2018-09-03T04:43:35.233Z,14.70
2018-09-03T04:46:03.894Z,14.60
2018-09-03T04:48:32.607Z,14.50
2018-09-03T04:51:01.264Z,14.50
2018-09-03T04:53:29.909Z,14.60
2018-09-03T04:55:58.514Z,14.60
2018-09-03T04:58:27.126Z,14.60
2018-09-03T05:00:55.781Z,14.50
2018-09-03T05:03:24.381Z,14.50
2018-09-03T05:05:53.139Z,14.50
2018-09-03T05:08:21.724Z,14.60
2018-09-03T05:10:50.353Z,14.70
2018-09-03T05:13:18.966Z,14.70
2018-09-03T05:15:47.617Z,14.80
2018-09-03T05:18:16.289Z,14.80
2018-09-03T05:20:44.989Z,14.80
2018-09-03T05:23:13.701Z,14.80
2018-09-03T05:25:42.380Z,14.80
2018-09-03T05:28:10.992Z,14.80
2018-09-03T05:30:39.636Z,14.70
2018-09-03T05:33:08.321Z,14.80
2018-09-03T05:35:36.968Z,14.90
2018-09-03T05:38:05.996Z,15.10
2018-09-03T05:40:34.628Z,15.20
2018-09-03T05:43:03.274Z,15.20
2018-09-03T05:45:31.928Z,15.40
2018-09-03T05:48:00.538Z,15.40
2018-09-03T05:50:29.204Z,15.30
2018-09-03T05:52:57.809Z,15.40
2018-09-03T05:55:26.523Z,15.50
2018-09-03T05:57:55.140Z,15.60
2018-09-03T06:00:23.944Z,15.70
2018-09-03T06:02:52.561Z,15.60
2018-09-03T06:05:21.212Z,15.70
2018-09-03T06:07:49.889Z,15.90
2018-09-03T06:10:18.552Z,16.10
2018-09-03T06:12:47.224Z,16.10
2018-09-03T06:15:15.893Z,16.20
2018-09-03T06:17:44.584Z,16.30
2018-09-03T06:20:13.226Z,16.30
2018-09-03T06:22:41.869Z,16.40
2018-09-03T06:25:10.959Z,16.20
2018-09-03T06:27:39.500Z,15.90
2018-09-03T06:30:08.201Z,15.90
2018-09-03T06:32:36.781Z,16.00
2018-09-03T06:35:05.442Z,16.30
2018-09-03T06:37:34.059Z,16.20
2018-09-03T06:40:02.696Z,16.40
2018-09-03T06:42:31.311Z,16.60
2018-09-03T06:45:00.009Z,16.80
2018-09-03T06:47:28.734Z,16.70
2018-09-03T06:49:57.406Z,16.30
2018-09-03T06:52:26.012Z,16.60
2018-09-03T06:54:54.654Z,16.40
2018-09-03T06:57:23.717Z,16.30
2018-09-03T06:59:52.757Z,16.60
2018-09-03T07:02:21.409Z,16.90
2018-09-03T07:04:50.006Z,16.80
2018-09-03T07:07:18.641Z,16.80
2018-09-03T07:09:47.211Z,17.00
2018-09-03T07:12:15.845Z,17.10
2018-09-03T07:14:44.423Z,17.30
2018-09-03T07:17:13.021Z,17.90
2018-09-03T07:19:41.653Z,18.40
2018-09-03T07:22:10.253Z,18.60
2018-09-03T07:24:38.874Z,18.70
2018-09-03T07:27:07.577Z,18.80
2018-09-03T07:29:36.512Z,18.30
2018-09-03T07:32:05.207Z,18.40
2018-09-03T07:34:33.799Z,18.80
2018-09-03T07:37:02.461Z,18.90
2018-09-03T07:39:31.090Z,18.90
2018-09-03T07:41:59.732Z,18.60
2018-09-03T07:44:28.336Z,18.50
2018-09-03T07:46:56.981Z,17.90
2018-09-03T07:49:25.579Z,17.90
2018-09-03T07:51:54.186Z,18.00
2018-09-03T07:54:22.787Z,17.90
2018-09-03T07:56:51.393Z,17.70
2018-09-03T07:59:20.008Z,18.10
2018-09-03T08:01:49.357Z,17.90
2018-09-03T08:04:17.973Z,18.00
2018-09-03T08:06:46.602Z,18.00
2018-09-03T08:09:15.208Z,18.20
2018-09-03T08:11:43.829Z,18.00
2018-09-03T08:14:12.439Z,17.40
2018-09-03T08:16:41.056Z,17.40
2018-09-03T08:19:09.661Z,17.70
2018-09-03T08:21:38.293Z,18.00
2018-09-03T08:24:07.033Z,18.20
2018-09-03T08:26:35.705Z,18.50
2018-09-03T08:29:04.327Z,18.70
2018-09-03T08:31:32.958Z,18.70
2018-09-03T08:34:01.550Z,18.60
2018-09-03T08:36:30.201Z,18.60
2018-09-03T08:38:58.845Z,18.10
2018-09-03T08:41:27.522Z,18.30
2018-09-03T08:43:56.101Z,18.40
2018-09-03T08:46:24.738Z,19.00
2018-09-03T08:48:53.337Z,18.80
2018-09-03T08:51:21.950Z,19.40
2018-09-03T08:53:50.641Z,19.60
2018-09-03T08:56:19.353Z,19.80
2018-09-03T08:58:48.033Z,19.60
2018-09-03T09:01:16.710Z,20.00
2018-09-03T09:03:45.435Z,19.60
2018-09-03T09:06:14.065Z,19.70
2018-09-03T09:08:42.683Z,19.90
2018-09-03T09:11:11.260Z,19.70
2018-09-03T09:13:39.882Z,19.50
2018-09-03T09:16:08.522Z,19.40
2018-09-03T09:18:37.174Z,19.30
2018-09-03T09:21:05.801Z,19.40
2018-09-03T09:23:34.454Z,19.10
2018-09-03T09:26:03.093Z,18.60
2018-09-03T09:28:31.742Z,18.90
2018-09-03T09:31:00.361Z,19.10
2018-09-03T09:33:29.022Z,19.20
2018-09-03T09:35:57.959Z,19.00
2018-09-03T09:38:26.633Z,19.10
2018-09-03T09:40:55.239Z,19.30
2018-09-03T09:43:23.859Z,19.60
2018-09-03T09:45:52.505Z,19.80
2018-09-03T09:48:21.165Z,20.00
2018-09-03T09:50:49.795Z,20.30
2018-09-03T09:53:18.467Z,19.40
2018-09-03T09:55:47.073Z,20.00
2018-09-03T09:58:15.749Z,20.20
2018-09-03T10:00:49.780Z,20.60
2018-09-03T10:03:18.378Z,20.80
2018-09-03T10:05:47.053Z,21.00
2018-09-03T10:08:15.669Z,21.40
2018-09-03T10:10:44.298Z,21.60
2018-09-03T10:13:12.929Z,21.50
2018-09-03T10:15:41.562Z,22.00
2018-09-03T10:18:10.222Z,22.10
2018-09-03T10:20:38.829Z,22.20
2018-09-03T10:23:07.644Z,21.90
2018-09-03T10:25:36.233Z,22.10
2018-09-03T10:28:05.014Z,22.10
2018-09-03T10:30:33.726Z,22.10
2018-09-03T10:33:02.424Z,21.70
2018-09-03T10:35:31.055Z,21.50
2018-09-03T10:37:59.985Z,21.10
2018-09-03T10:40:28.609Z,21.70
2018-09-03T10:42:57.421Z,22.00
2018-09-03T10:45:26.021Z,22.20
2018-09-03T10:47:54.685Z,22.40
2018-09-03T10:50:23.280Z,21.80
2018-09-03T10:52:51.913Z,22.30
2018-09-03T10:55:20.564Z,22.10
2018-09-03T10:57:49.125Z,22.50
2018-09-03T11:00:24.398Z,23.30
2018-09-03T11:02:53.026Z,23.40
2018-09-03T11:05:21.638Z,23.00
2018-09-03T11:07:50.248Z,23.40
2018-09-03T11:10:18.845Z,23.30
2018-09-03T11:12:47.495Z,23.30
2018-09-03T11:15:16.062Z,22.80
2018-09-03T11:17:45.352Z,22.40
2018-09-03T11:20:30.250Z,22.80
2018-09-03T11:22:59.515Z,23.20
2018-09-03T11:25:30.161Z,23.60
2018-09-03T11:27:58.853Z,23.70
2018-09-03T11:30:27.733Z,23.90
2018-09-03T11:33:00.701Z,24.10
2018-09-03T11:35:29.302Z,23.90
2018-09-03T11:37:57.954Z,23.20
2018-09-03T11:40:26.970Z,23.30
2018-09-03T11:42:55.588Z,23.10
2018-09-03T11:45:24.739Z,23.10
2018-09-03T11:47:53.322Z,23.10
2018-09-03T11:50:21.973Z,23.40
2018-09-03T11:52:50.574Z,23.40
2018-09-03T11:55:19.197Z,22.80
2018-09-03T11:57:47.782Z,23.30
2018-09-03T12:00:21.878Z,23.50
2018-09-03T12:02:57.117Z,23.40
2018-09-03T12:05:25.757Z,23.30
2018-09-03T12:07:54.485Z,23.20
2018-09-03T12:10:23.181Z,23.10
2018-09-03T12:12:51.790Z,23.20
2018-09-03T12:15:31.230Z,23.30
2018-09-03T12:17:59.861Z,22.80
2018-09-03T12:20:28.494Z,22.80
2018-09-03T12:22:57.116Z,22.80
2018-09-03T12:25:25.723Z,22.40
2018-09-03T12:27:54.301Z,21.90
2018-09-03T12:30:22.920Z,21.90
2018-09-03T12:32:51.555Z,21.90
2018-09-03T12:35:20.121Z,21.80
2018-09-03T12:37:48.721Z,21.80
2018-09-03T12:40:17.333Z,22.00
2018-09-03T12:42:45.961Z,21.80
2018-09-03T12:45:14.562Z,21.70
2018-09-03T12:47:43.145Z,21.30
2018-09-03T12:50:11.815Z,21.60
2018-09-03T12:52:40.418Z,21.90
2018-09-03T12:55:09.026Z,21.70
2018-09-03T12:57:37.609Z,21.60
2018-09-03T13:00:06.250Z,21.70
2018-09-03T13:02:39.421Z,22.20
2018-09-03T13:05:03.499Z,22.30
2018-09-03T13:07:32.130Z,22.20
2018-09-03T13:10:00.737Z,21.90
2018-09-03T13:12:29.360Z,21.90
2018-09-03T13:14:57.930Z,22.10
2018-09-03T13:17:26.502Z,22.60
2018-09-03T13:19:55.111Z,22.80
2018-09-03T13:22:23.774Z,22.80
2018-09-03T13:24:52.395Z,22.50
2018-09-03T13:27:20.998Z,22.80
2018-09-03T13:29:49.614Z,22.90
2018-09-03T13:32:18.237Z,23.20
2018-09-03T13:34:46.849Z,23.50
2018-09-03T13:37:15.446Z,23.50
2018-09-03T13:39:44.053Z,23.40
2018-09-03T13:42:12.683Z,23.00
2018-09-03T13:44:41.293Z,22.70
2018-09-03T13:47:09.897Z,22.90
2018-09-03T13:49:38.477Z,23.00
2018-09-03T13:52:07.057Z,22.40
2018-09-03T13:54:35.658Z,22.70
2018-09-03T13:57:04.265Z,23.60
2018-09-03T13:59:32.903Z,23.90
2018-09-03T14:02:01.498Z,23.60
2018-09-03T14:04:30.109Z,23.00
2018-09-03T14:06:58.765Z,23.50
2018-09-03T14:09:27.422Z,23.80
2018-09-03T14:11:56.046Z,23.60
2018-09-03T14:14:24.648Z,22.80
2018-09-03T14:16:53.270Z,22.70
2018-09-03T14:19:21.893Z,22.60
2018-09-03T14:21:50.573Z,22.80
2018-09-03T14:24:19.223Z,22.30
2018-09-03T14:26:47.969Z,22.50
2018-09-03T14:29:17.002Z,23.00
2018-09-03T14:31:45.628Z,23.00
2018-09-03T14:34:14.247Z,23.00
2018-09-03T14:36:42.878Z,23.20
2018-09-03T14:39:12.445Z,23.20
2018-09-03T14:41:41.070Z,23.60
2018-09-03T14:44:10.250Z,24.20
2018-09-03T14:46:45.562Z,23.30
2018-09-03T14:49:14.170Z,23.00
2018-09-03T14:51:42.850Z,23.00
2018-09-03T14:54:11.518Z,23.20
2018-09-03T14:56:40.332Z,22.40
2018-09-03T14:59:08.934Z,22.90
2018-09-03T15:01:37.572Z,23.30
2018-09-03T15:04:06.417Z,23.00
2018-09-03T15:06:35.070Z,22.90
2018-09-03T15:09:05.290Z,23.30
2018-09-03T15:11:33.938Z,23.00
2018-09-03T15:14:02.581Z,22.80
2018-09-03T15:16:32.505Z,22.30
2018-09-03T15:19:02.813Z,22.80
2018-09-03T15:21:31.915Z,23.00
2018-09-03T15:24:01.083Z,23.60
2018-09-03T15:26:30.242Z,23.40
2018-09-03T15:28:58.783Z,23.50
2018-09-03T15:31:27.407Z,23.40
2018-09-03T15:33:55.988Z,23.20
2018-09-03T15:36:24.906Z,23.00
2018-09-03T15:38:53.495Z,23.30
2018-09-03T15:41:22.117Z,23.50
2018-09-03T15:43:50.686Z,23.30
2018-09-03T15:46:19.289Z,23.00
2018-09-03T15:48:47.873Z,22.50
2018-09-03T15:51:16.503Z,22.60
2018-09-03T15:53:45.191Z,22.20
2018-09-03T15:56:13.855Z,22.50
2018-09-03T15:58:42.481Z,22.40
2018-09-03T16:01:11.141Z,22.50
2018-09-03T16:03:39.741Z,22.70
2018-09-03T16:06:08.388Z,22.30
2018-09-03T16:08:37.009Z,22.70
2018-09-03T16:11:05.671Z,22.90
2018-09-03T16:13:34.265Z,22.70
2018-09-03T16:16:02.893Z,22.70
2018-09-03T16:18:31.513Z,22.70
2018-09-03T16:21:00.189Z,22.60
2018-09-03T16:23:28.774Z,22.30
2018-09-03T16:25:57.388Z,21.70
2018-09-03T16:28:25.997Z,21.80
2018-09-03T16:30:54.648Z,21.80
2018-09-03T16:33:23.357Z,21.80
2018-09-03T16:35:52.064Z,21.80
2018-09-03T16:38:20.593Z,21.60
2018-09-03T16:40:49.224Z,21.50
2018-09-03T16:43:17.857Z,21.70
2018-09-03T16:45:46.502Z,21.80
2018-09-03T16:48:15.092Z,21.70
2018-09-03T16:50:43.781Z,21.80
2018-09-03T16:53:12.403Z,21.60
2018-09-03T16:55:40.993Z,21.40
2018-09-03T16:58:09.609Z,21.40
2018-09-03T17:00:38.206Z,21.00
2018-09-03T17:03:06.805Z,20.90
2018-09-03T17:05:35.385Z,20.60
2018-09-03T17:08:04.049Z,20.60
2018-09-03T17:10:32.632Z,20.30
2018-09-03T17:13:01.226Z,20.10
2018-09-03T17:15:29.754Z,20.00
2018-09-03T17:17:58.350Z,19.90
2018-09-03T17:20:26.992Z,19.70
2018-09-03T17:22:55.630Z,19.70
2018-09-03T17:25:24.221Z,19.60
2018-09-03T17:27:52.850Z,19.70
2018-09-03T17:30:21.460Z,19.70
2018-09-03T17:32:50.091Z,19.60
2018-09-03T17:35:18.714Z,19.50
2018-09-03T17:37:47.358Z,19.20
2018-09-03T17:40:15.938Z,19.10
2018-09-03T17:42:44.546Z,19.00
2018-09-03T17:45:13.206Z,18.90
2018-09-03T17:47:41.904Z,18.80
2018-09-03T17:50:10.546Z,18.80
2018-09-03T17:52:39.137Z,18.60
2018-09-03T17:55:09.002Z,18.60
2018-09-03T17:57:37.621Z,18.60
2018-09-03T18:00:06.386Z,18.50
2018-09-03T18:02:35.023Z,18.40
2018-09-03T18:05:03.800Z,18.30
2018-09-03T18:07:32.639Z,18.20
2018-09-03T18:10:01.259Z,18.10
2018-09-03T18:12:29.876Z,18.00
2018-09-03T18:14:58.465Z,17.90
2018-09-03T18:17:27.130Z,17.80
2018-09-03T18:19:55.737Z,17.70
2018-09-03T18:22:24.394Z,17.50
2018-09-03T18:24:53.128Z,17.40
2018-09-03T18:27:21.834Z,17.30
2018-09-03T18:29:50.502Z,17.30
2018-09-03T18:32:19.141Z,17.30
2018-09-03T18:34:47.743Z,17.20
2018-09-03T18:37:16.417Z,17.10
2018-09-03T18:39:45.093Z,17.00
2018-09-03T18:42:13.746Z,16.90
2018-09-03T18:44:42.394Z,16.80
2018-09-03T18:47:11.006Z,16.80
2018-09-03T18:49:39.655Z,16.70
2018-09-03T18:52:08.293Z,16.60
2018-09-03T18:54:36.913Z,16.60
2018-09-03T18:57:05.618Z,16.50
2018-09-03T18:59:34.241Z,16.50
2018-09-03T19:02:02.974Z,16.40
2018-09-03T19:04:31.641Z,16.50
2018-09-03T19:07:00.340Z,16.40
2018-09-03T19:09:29.004Z,16.50
2018-09-03T19:11:57.681Z,16.50
2018-09-03T19:14:26.337Z,16.50
2018-09-03T19:16:55.042Z,16.70
2018-09-03T19:19:23.761Z,16.80
2018-09-03T19:21:52.540Z,16.90
2018-09-03T19:24:21.294Z,16.90
2018-09-03T19:26:49.946Z,16.80
2018-09-03T19:29:18.647Z,16.80
2018-09-03T19:31:47.298Z,16.80
2018-09-03T19:34:15.946Z,16.70
2018-09-03T19:36:44.642Z,16.70
2018-09-03T19:39:13.254Z,16.70
2018-09-03T19:41:41.882Z,16.80
2018-09-03T19:44:10.538Z,17.00
2018-09-03T19:46:39.240Z,17.00
2018-09-03T19:49:08.541Z,17.20
2018-09-03T19:51:37.154Z,17.20
2018-09-03T19:54:06.039Z,17.30
2018-09-03T19:56:34.659Z,17.50
2018-09-03T19:59:03.317Z,17.70
2018-09-03T20:01:31.948Z,17.70
2018-09-03T20:04:00.605Z,17.80
2018-09-03T20:06:29.257Z,17.80
2018-09-03T20:08:57.958Z,17.70
2018-09-03T20:11:26.577Z,17.70
2018-09-03T20:13:55.214Z,17.60
2018-09-03T20:16:23.914Z,17.50
2018-09-03T20:18:52.579Z,17.50
2018-09-03T20:21:21.209Z,17.40
2018-09-03T20:23:49.894Z,17.20
2018-09-03T20:26:18.500Z,17.10
2018-09-03T20:28:47.220Z,17.00
2018-09-03T20:31:15.993Z,16.80
2018-09-03T20:33:44.453Z,16.80
2018-09-03T20:36:14.121Z,16.70
2018-09-03T20:38:42.698Z,16.70
2018-09-03T20:41:11.289Z,16.60
2018-09-03T20:43:39.905Z,16.30
2018-09-03T20:46:08.510Z,16.10
2018-09-03T20:48:37.333Z,15.90
2018-09-03T20:51:05.978Z,15.70
2018-09-03T20:53:34.599Z,15.60
2018-09-03T20:56:03.709Z,15.50
2018-09-03T20:58:32.390Z,15.40
2018-09-03T21:01:00.988Z,15.50
2018-09-03T21:03:29.570Z,15.40
2018-09-03T21:05:58.121Z,15.50
2018-09-03T21:08:26.879Z,15.50
2018-09-03T21:10:55.475Z,15.50
2018-09-03T21:13:24.066Z,15.30
2018-09-03T21:15:52.633Z,15.30
2018-09-03T21:18:21.282Z,15.20
2018-09-03T21:20:49.871Z,15.20
2018-09-03T21:23:18.543Z,15.10
2018-09-03T21:25:47.192Z,15.10
2018-09-03T21:28:15.793Z,15.00
2018-09-03T21:30:44.401Z,15.00
2018-09-03T21:33:13.025Z,15.00
2018-09-03T21:35:41.698Z,15.00
2018-09-03T21:38:10.344Z,15.00
2018-09-03T21:40:38.973Z,15.00
2018-09-03T21:43:07.610Z,14.90
2018-09-03T21:45:36.253Z,14.90
2018-09-03T21:48:04.905Z,14.90
2018-09-03T21:50:33.571Z,14.80
2018-09-03T21:53:02.195Z,14.70
2018-09-03T21:55:30.822Z,14.70
2018-09-03T21:58:05.992Z,14.90
2018-09-03T22:00:34.878Z,14.80
2018-09-03T22:03:03.513Z,14.80
2018-09-03T22:05:32.181Z,14.70
2018-09-03T22:08:00.798Z,14.80
2018-09-03T22:10:29.423Z,14.90
2018-09-03T22:12:58.042Z,15.10
2018-09-03T22:15:26.714Z,15.10
2018-09-03T22:17:55.340Z,15.00
2018-09-03T22:20:23.981Z,15.00
2018-09-03T22:22:52.594Z,14.90
2018-09-03T22:25:21.281Z,14.80
2018-09-03T22:27:49.909Z,14.60
2018-09-03T22:30:18.599Z,14.50
2018-09-03T22:32:47.551Z,14.40
2018-09-03T22:35:16.194Z,14.30
2018-09-03T22:37:44.785Z,14.30
2018-09-03T22:40:13.418Z,14.20
2018-09-03T22:42:42.048Z,14.20
2018-09-03T22:45:10.683Z,14.20
2018-09-03T22:47:39.309Z,14.20
2018-09-03T22:50:07.994Z,14.20
2018-09-03T22:52:36.621Z,14.10
2018-09-03T22:55:05.549Z,14.10
2018-09-03T22:57:34.136Z,14.00
2018-09-03T23:00:03.239Z,14.00
2018-09-03T23:02:36.010Z,14.00
2018-09-03T23:05:04.980Z,13.90
2018-09-03T23:07:33.642Z,13.90
2018-09-03T23:10:02.317Z,13.90
2018-09-03T23:12:31.006Z,13.90
2018-09-03T23:14:59.656Z,13.90
2018-09-03T23:17:28.276Z,13.90
2018-09-03T23:19:56.937Z,13.80
2018-09-03T23:22:25.545Z,13.80
2018-09-03T23:24:54.552Z,13.80
2018-09-03T23:27:23.177Z,13.70
2018-09-03T23:29:51.873Z,13.80
2018-09-03T23:32:20.703Z,13.90
2018-09-03T23:34:49.352Z,13.90
2018-09-03T23:37:17.999Z,13.90
2018-09-03T23:39:46.632Z,13.90
2018-09-03T23:42:15.276Z,13.80
2018-09-03T23:44:43.985Z,13.80
2018-09-03T23:47:12.634Z,13.80
2018-09-03T23:49:41.267Z,13.80
2018-09-03T23:52:09.896Z,13.90
2018-09-03T23:54:38.554Z,13.90
2018-09-03T23:57:07.169Z,13.90
2018-09-03T23:59:35.837Z,13.90
